Palflot-5 — UBHC — position and weather

sailwx.info

Track history (hours):
 
Tides and Currents Weather Stations Pressure Air Temp Water Temp Dewpoint Dewpoint Depression Visibility Wind Speed Wind Dir Waves Ship Positions

Palflot-5

Last reported at 2017-Oct-09 14:55 UTC. Time now 2017-Nov-25 06:12 UTC.
Position N 45°32' E 036°47'.
Warning: this ship's position is 46 days out of date.

Length 122 m; draft 2.4 m.

Type: Tanker. MMSI: 273443040.

Date/timePositionNaut miles runAvg speedWind from/ knotsBaromVisibWave heightAir tempDewpointWater temp
2017-Oct-09 14:55N 45°32' E 036°47'3 6.5
2017-Oct-09 14:30N 45°30' E 036°45'3 5.5
2017-Oct-09 13:59N 45°28' E 036°43'2 4.4
2017-Oct-09 13:30N 45°26' E 036°42'2 4.7
2017-Oct-09 13:00N 45°24' E 036°41'3 5.7
2017-Oct-09 12:30N 45°21' E 036°40'3 6.5
2017-Oct-09 12:00N 45°20' E 036°35'3 6.7
2017-Oct-09 11:30N 45°19' E 036°31'3 5.6
2017-Oct-09 11:00N 45°16' E 036°29'2 3.8
2017-Oct-09 10:28N 45°14' E 036°29'0 0.4
2017-Oct-09 09:58N 45°14' E 036°30'0 0.0
2017-Oct-09 09:01N 45°14' E 036°30'0 0.0
2017-Oct-09 08:37N 45°14' E 036°30'0 0.0
2017-Oct-09 08:22N 45°14' E 036°30'0 0.1
2017-Oct-09 07:58N 45°14' E 036°30'0 0.0
2017-Oct-09 07:16N 45°14' E 036°30'0 0.0
2017-Oct-09 06:58N 45°14' E 036°30'0 0.0
2017-Oct-09 06:28N 45°14' E 036°30'0 0.0
2017-Oct-09 05:55N 45°14' E 036°30'0 0.0
2017-Oct-09 05:28N 45°14' E 036°30'0 0.0
2017-Oct-09 04:58N 45°14' E 036°30'0 0.0
2017-Oct-09 04:28N 45°14' E 036°30'0 0.0
2017-Oct-09 03:58N 45°14' E 036°30'0 0.0
2017-Oct-09 03:25N 45°14' E 036°30'0 0.0
2017-Oct-09 02:46N 45°14' E 036°30'0 0.0
2017-Oct-09 02:25N 45°14' E 036°30'0 0.0
2017-Oct-09 01:55N 45°14' E 036°30'0 0.0
2017-Oct-09 01:25N 45°14' E 036°30'0 0.0
2017-Oct-09 00:58N 45°14' E 036°30'0 0.0
2017-Oct-09 00:28N 45°14' E 036°30'0 0.0
2017-Oct-08 23:58N 45°14' E 036°30'0 0.0
2017-Oct-08 23:16N 45°14' E 036°30'0 0.0
2017-Oct-08 22:55N 45°14' E 036°30'0 0.0
2017-Oct-08 22:25N 45°14' E 036°30'0 0.0
2017-Oct-08 21:58N 45°14' E 036°30'0 0.0
2017-Oct-08 21:28N 45°14' E 036°30'0 0.0
2017-Oct-08 20:55N 45°14' E 036°30'0 0.0
2017-Oct-08 20:25N 45°14' E 036°30'0 0.0
2017-Oct-08 19:55N 45°14' E 036°30'0 0.0
2017-Oct-08 19:13N 45°14' E 036°30'0 0.0
2017-Oct-08 18:55N 45°14' E 036°30'0 0.0
2017-Oct-08 18:22N 45°14' E 036°30'0 0.0
2017-Oct-08 16:22N 45°14' E 036°30'0 0.0
2017-Oct-08 14:55N 45°14' E 036°30'0 0.0
2017-Oct-08 13:55N 45°14' E 036°30'0 0.0
2017-Oct-08 13:19N 45°14' E 036°30'0 0.0
2017-Oct-08 12:46N 45°14' E 036°30'0 0.0
2017-Oct-08 12:25N 45°14' E 036°30'0 0.0
2017-Oct-08 11:49N 45°14' E 036°30'0 0.0
2017-Oct-08 11:25N 45°14' E 036°30'0 0.0
2017-Oct-08 10:58N 45°14' E 036°30'0 0.0
2017-Oct-08 10:04N 45°14' E 036°30'0 0.0
2017-Oct-08 09:43N 45°14' E 036°29'0 0.0
2017-Oct-08 08:49N 45°14' E 036°29'0 0.0
2017-Oct-08 07:19N 45°14' E 036°29'0 0.0
2017-Oct-08 06:58N 45°14' E 036°29'0 0.0
2017-Oct-08 06:22N 45°14' E 036°29'0 0.0
2017-Oct-08 05:58N 45°14' E 036°29'0 0.0
2017-Oct-08 05:25N 45°14' E 036°29'0 0.0
2017-Oct-08 04:58N 45°14' E 036°29'0 0.0
2017-Oct-08 04:13N 45°14' E 036°29'0 0.0
2017-Oct-08 03:40N 45°14' E 036°29'0 0.0
2017-Oct-08 01:34N 45°14' E 036°29'2 0.1
2017-Oct-07 00:26N 45°15' E 036°28'3 5.2
2017-Oct-06 23:55N 45°18' E 036°29'2 4.6
2017-Oct-06 23:30N 45°19' E 036°32'2 4.5
2017-Oct-06 23:01N 45°19' E 036°35'2 4.1
2017-Oct-06 22:30N 45°20' E 036°37'2 4.3
2017-Oct-06 22:00N 45°21' E 036°40'1 2.5
2017-Oct-06 21:31N 45°22' E 036°41'0 0.6
2017-Oct-06 21:01N 45°23' E 036°41'0 0.0
2017-Oct-06 20:30N 45°23' E 036°41'0 0.0
2017-Oct-06 20:00N 45°23' E 036°41'0 0.0
2017-Oct-06 19:31N 45°23' E 036°41'0 0.0
2017-Oct-06 19:00N 45°23' E 036°41'1 1.9
2017-Oct-06 18:30N 45°23' E 036°40'1 2.6
2017-Oct-06 18:00N 45°25' E 036°41'1 2.5
2017-Oct-06 17:31N 45°26' E 036°42'2 3.2
2017-Oct-06 17:00N 45°27' E 036°43'3 0.5
2017-Oct-06 11:05N 45°30' E 036°45'0 0.0
2017-Oct-06 09:59N 45°30' E 036°45'0 0.0
2017-Oct-06 04:44N 45°30' E 036°45'0 0.0
2017-Oct-06 04:26N 45°30' E 036°45'0 0.0
2017-Oct-06 03:49N 45°30' E 036°45'0 0.0
2017-Oct-06 02:46N 45°30' E 036°45'0 0.0
2017-Oct-06 02:29N 45°30' E 036°45'0 0.0
2017-Oct-06 01:17N 45°30' E 036°45'1 2.9
2017-Oct-06 01:01N 45°31' E 036°45'  
Track history (hours):
 
Tides and Currents Weather Stations Pressure Air Temp Water Temp Dewpoint Dewpoint Depression Visibility Wind Speed Wind Dir Waves Ship Positions

Palflot-5

Last reported at 2017-Oct-09 14:55 UTC. Time now 2017-Nov-25 06:12 UTC.
Position N 45°32' E 036°47'.
Warning: this ship's position is 46 days out of date.

Length 122 m; draft 2.4 m.

Type: Tanker. MMSI: 273443040.

Date/timePositionNaut miles runAvg speedWind from/ knotsBaromVisibWave heightAir tempDewpointWater temp
2017-Oct-09 14:55N 45°32' E 036°47'3 6.5
2017-Oct-09 14:30N 45°30' E 036°45'3 5.5
2017-Oct-09 13:59N 45°28' E 036°43'2 4.4
2017-Oct-09 13:30N 45°26' E 036°42'2 4.7
2017-Oct-09 13:00N 45°24' E 036°41'3 5.7
2017-Oct-09 12:30N 45°21' E 036°40'3 6.5
2017-Oct-09 12:00N 45°20' E 036°35'3 6.7
2017-Oct-09 11:30N 45°19' E 036°31'3 5.6
2017-Oct-09 11:00N 45°16' E 036°29'2 3.8
2017-Oct-09 10:28N 45°14' E 036°29'0 0.4
2017-Oct-09 09:58N 45°14' E 036°30'0 0.0
2017-Oct-09 09:01N 45°14' E 036°30'0 0.0
2017-Oct-09 08:37N 45°14' E 036°30'0 0.0
2017-Oct-09 08:22N 45°14' E 036°30'0 0.1
2017-Oct-09 07:58N 45°14' E 036°30'0 0.0
2017-Oct-09 07:16N 45°14' E 036°30'0 0.0
2017-Oct-09 06:58N 45°14' E 036°30'0 0.0
2017-Oct-09 06:28N 45°14' E 036°30'0 0.0
2017-Oct-09 05:55N 45°14' E 036°30'0 0.0
2017-Oct-09 05:28N 45°14' E 036°30'0 0.0
2017-Oct-09 04:58N 45°14' E 036°30'0 0.0
2017-Oct-09 04:28N 45°14' E 036°30'0 0.0
2017-Oct-09 03:58N 45°14' E 036°30'0 0.0
2017-Oct-09 03:25N 45°14' E 036°30'0 0.0
2017-Oct-09 02:46N 45°14' E 036°30'0 0.0
2017-Oct-09 02:25N 45°14' E 036°30'0 0.0
2017-Oct-09 01:55N 45°14' E 036°30'0 0.0
2017-Oct-09 01:25N 45°14' E 036°30'0 0.0
2017-Oct-09 00:58N 45°14' E 036°30'0 0.0
2017-Oct-09 00:28N 45°14' E 036°30'0 0.0
2017-Oct-08 23:58N 45°14' E 036°30'0 0.0
2017-Oct-08 23:16N 45°14' E 036°30'0 0.0
2017-Oct-08 22:55N 45°14' E 036°30'0 0.0
2017-Oct-08 22:25N 45°14' E 036°30'0 0.0
2017-Oct-08 21:58N 45°14' E 036°30'0 0.0
2017-Oct-08 21:28N 45°14' E 036°30'0 0.0
2017-Oct-08 20:55N 45°14' E 036°30'0 0.0
2017-Oct-08 20:25N 45°14' E 036°30'0 0.0
2017-Oct-08 19:55N 45°14' E 036°30'0 0.0
2017-Oct-08 19:13N 45°14' E 036°30'0 0.0
2017-Oct-08 18:55N 45°14' E 036°30'0 0.0
2017-Oct-08 18:22N 45°14' E 036°30'0 0.0
2017-Oct-08 16:22N 45°14' E 036°30'0 0.0
2017-Oct-08 14:55N 45°14' E 036°30'0 0.0
2017-Oct-08 13:55N 45°14' E 036°30'0 0.0
2017-Oct-08 13:19N 45°14' E 036°30'0 0.0
2017-Oct-08 12:46N 45°14' E 036°30'0 0.0
2017-Oct-08 12:25N 45°14' E 036°30'0 0.0
2017-Oct-08 11:49N 45°14' E 036°30'0 0.0
2017-Oct-08 11:25N 45°14' E 036°30'0 0.0
2017-Oct-08 10:58N 45°14' E 036°30'0 0.0
2017-Oct-08 10:04N 45°14' E 036°30'0 0.0
2017-Oct-08 09:43N 45°14' E 036°29'0 0.0
2017-Oct-08 08:49N 45°14' E 036°29'0 0.0
2017-Oct-08 07:19N 45°14' E 036°29'0 0.0
2017-Oct-08 06:58N 45°14' E 036°29'0 0.0
2017-Oct-08 06:22N 45°14' E 036°29'0 0.0
2017-Oct-08 05:58N 45°14' E 036°29'0 0.0
2017-Oct-08 05:25N 45°14' E 036°29'0 0.0
2017-Oct-08 04:58N 45°14' E 036°29'0 0.0
2017-Oct-08 04:13N 45°14' E 036°29'0 0.0
2017-Oct-08 03:40N 45°14' E 036°29'0 0.0
2017-Oct-08 01:34N 45°14' E 036°29'2 0.1
2017-Oct-07 00:26N 45°15' E 036°28'3 5.2
2017-Oct-06 23:55N 45°18' E 036°29'2 4.6
2017-Oct-06 23:30N 45°19' E 036°32'2 4.5
2017-Oct-06 23:01N 45°19' E 036°35'2 4.1
2017-Oct-06 22:30N 45°20' E 036°37'2 4.3
2017-Oct-06 22:00N 45°21' E 036°40'1 2.5
2017-Oct-06 21:31N 45°22' E 036°41'0 0.6
2017-Oct-06 21:01N 45°23' E 036°41'0 0.0
2017-Oct-06 20:30N 45°23' E 036°41'0 0.0
2017-Oct-06 20:00N 45°23' E 036°41'0 0.0
2017-Oct-06 19:31N 45°23' E 036°41'0 0.0
2017-Oct-06 19:00N 45°23' E 036°41'1 1.9
2017-Oct-06 18:30N 45°23' E 036°40'1 2.6
2017-Oct-06 18:00N 45°25' E 036°41'1 2.5
2017-Oct-06 17:31N 45°26' E 036°42'2 3.2
2017-Oct-06 17:00N 45°27' E 036°43'3 0.5
2017-Oct-06 11:05N 45°30' E 036°45'0 0.0
2017-Oct-06 09:59N 45°30' E 036°45'0 0.0
2017-Oct-06 04:44N 45°30' E 036°45'0 0.0
2017-Oct-06 04:26N 45°30' E 036°45'0 0.0
2017-Oct-06 03:49N 45°30' E 036°45'0 0.0
2017-Oct-06 02:46N 45°30' E 036°45'0 0.0
2017-Oct-06 02:29N 45°30' E 036°45'0 0.0
2017-Oct-06 01:17N 45°30' E 036°45'1 2.9
2017-Oct-06 01:01N 45°31' E 036°45'  

Dump ship's entire track history